Time;durP1;ratioP1;P1;durP2;ratioP2;P2;SDS_P1;SDS_P2;PMS_P1;PMS_P2;Temp;Humidity;BMP_temperature;BMP_pressure;BME280_temperature;BME280_humidity;BME280_pressure;Samples;Min_cycle;Max_cycle;Signal;HPM_P1;HPM_P2
2021/07/25 00:00:07;;;;;;;14.65;9.25;;;16.20;73.50;;;;;;5092220;28;20051;-75
2021/07/25 00:02:37;;;;;;;13.60;9.57;;;16.20;73.80;;;;;;5091974;28;20054;-75
2021/07/25 00:05:10;;;;;;;12.15;8.82;;;16.10;73.90;;;;;;5092044;28;20044;-75
2021/07/25 00:07:39;;;;;;;16.08;9.30;;;16.00;74.10;;;;;;5090938;28;20055;-76
2021/07/25 00:10:07;;;;;;;13.77;8.88;;;15.90;74.30;;;;;;5087572;28;20462;-75
2021/07/25 00:12:35;;;;;;;18.70;9.35;;;15.90;74.50;;;;;;5092045;28;20052;-75
2021/07/25 00:15:03;;;;;;;14.90;8.60;;;15.80;74.60;;;;;;5090109;28;20044;-76
2021/07/25 00:17:31;;;;;;;14.35;8.88;;;15.80;74.80;;;;;;5090879;28;20055;-76
2021/07/25 00:19:59;;;;;;;13.88;9.27;;;15.80;75.00;;;;;;5092066;28;20486;-77
2021/07/25 00:22:27;;;;;;;13.40;8.70;;;15.70;75.20;;;;;;5090092;28;20051;-76
2021/07/25 00:25:18;;;;;;;13.90;8.10;;;15.70;75.40;;;;;;5090862;28;20040;-76
2021/07/25 00:27:52;;;;;;;17.05;9.18;;;15.60;75.60;;;;;;5091075;28;20032;-76
2021/07/25 00:30:25;;;;;;;10.18;8.40;;;15.50;75.70;;;;;;5089023;28;20052;-75
2021/07/25 00:33:01;;;;;;;11.60;8.20;;;15.50;75.80;;;;;;5087310;28;20049;-75
2021/07/25 00:35:31;;;;;;;11.60;8.00;;;15.40;75.90;;;;;;5091442;28;20047;-75
2021/07/25 00:38:01;;;;;;;12.20;7.88;;;15.40;76.20;;;;;;5090314;28;20484;-75
2021/07/25 00:40:29;;;;;;;11.93;8.35;;;15.30;76.20;;;;;;5092024;28;20431;-75
2021/07/25 00:42:56;;;;;;;15.13;8.20;;;15.30;76.30;;;;;;5090426;28;20398;-75
2021/07/25 00:45:24;;;;;;;10.85;8.05;;;15.30;76.50;;;;;;5090375;28;20081;-74
2021/07/25 00:47:52;;;;;;;13.88;8.40;;;15.30;76.60;;;;;;5090820;28;20483;-75
2021/07/25 00:50:21;;;;;;;17.58;7.78;;;15.30;76.80;;;;;;5090209;28;20515;-74
2021/07/25 00:52:49;;;;;;;10.57;6.80;;;15.30;76.90;;;;;;5089507;28;20056;-74
2021/07/25 00:55:20;;;;;;;11.68;6.70;;;15.20;76.90;;;;;;5091854;28;20055;-75
2021/07/25 00:57:49;;;;;;;11.52;6.82;;;15.20;76.80;;;;;;5090316;28;20044;-75
2021/07/25 01:00:17;;;;;;;9.95;6.57;;;15.20;76.70;;;;;;5071699;28;20053;-75
2021/07/25 01:03:09;;;;;;;7.55;6.05;;;15.20;76.60;;;;;;5070277;28;20047;-75
2021/07/25 01:05:58;;;;;;;9.13;5.70;;;15.10;76.70;;;;;;5071390;28;20041;-75
2021/07/25 01:08:42;;;;;;;8.85;5.57;;;15.10;76.50;;;;;;5071465;28;20476;-75
2021/07/25 01:11:12;;;;;;;11.60;5.55;;;15.10;76.30;;;;;;5085336;28;20070;-75
2021/07/25 01:13:42;;;;;;;7.00;5.18;;;15.20;76.00;;;;;;5091594;28;20036;-75
2021/07/25 01:16:10;;;;;;;7.78;4.70;;;15.20;75.80;;;;;;5091530;28;20044;-75
2021/07/25 01:18:50;;;;;;;11.50;5.05;;;15.20;75.70;;;;;;5089958;28;20512;-75
2021/07/25 01:21:19;;;;;;;9.65;5.43;;;15.20;75.60;;;;;;5092571;28;20482;-75
2021/07/25 01:23:48;;;;;;;5.95;4.88;;;15.20;75.40;;;;;;5093288;28;20048;-76
2021/07/25 01:26:24;;;;;;;8.48;5.15;;;15.10;75.40;;;;;;5095230;28;20047;-75
2021/07/25 01:28:53;;;;;;;7.97;5.18;;;15.10;75.30;;;;;;5095159;28;20482;-75
2021/07/25 01:31:26;;;;;;;8.77;4.72;;;15.10;75.20;;;;;;5093968;28;20059;-76
2021/07/25 01:33:55;;;;;;;6.80;5.20;;;15.10;75.20;;;;;;5093719;28;20457;-75
2021/07/25 01:36:23;;;;;;;6.88;4.90;;;15.00;75.30;;;;;;5093452;28;20052;-75
2021/07/25 01:38:53;;;;;;;9.68;5.30;;;15.00;75.30;;;;;;5060361;28;20051;-75
2021/07/25 01:41:21;;;;;;;8.90;5.47;;;15.00;75.50;;;;;;5093810;28;20044;-76
2021/07/25 01:43:51;;;;;;;8.00;5.30;;;14.90;75.60;;;;;;5094263;28;20063;-76
2021/07/25 01:46:19;;;;;;;10.23;5.85;;;14.80;75.70;;;;;;5075963;28;20055;-75
2021/07/25 01:48:47;;;;;;;7.63;5.50;;;14.80;75.90;;;;;;5093079;28;20134;-75
2021/07/25 01:51:15;;;;;;;9.95;5.97;;;14.80;76.00;;;;;;5094708;28;20048;-75
2021/07/25 01:53:43;;;;;;;9.07;5.63;;;14.80;76.20;;;;;;5094702;28;20064;-76
2021/07/25 01:56:11;;;;;;;10.75;5.85;;;14.70;76.30;;;;;;5094792;28;20479;-76
2021/07/25 01:58:39;;;;;;;12.18;6.03;;;14.60;76.50;;;;;;5094601;28;20048;-76
2021/07/25 02:01:07;;;;;;;181.50;16.13;;;14.60;76.60;;;;;;5094652;28;20036;-76
2021/07/25 02:03:37;;;;;;;21.17;5.53;;;14.50;76.70;;;;;;5093096;28;20052;-76
2021/07/25 02:06:05;;;;;;;16.48;6.10;;;14.50;76.80;;;;;;5094509;28;20052;-76
2021/07/25 02:08:33;;;;;;;18.70;6.32;;;14.50;76.90;;;;;;5093128;28;20538;-76
2021/07/25 02:11:00;;;;;;;12.27;5.93;;;14.40;76.90;;;;;;5093023;28;20047;-76
2021/07/25 02:13:30;;;;;;;10.25;5.90;;;14.40;77.10;;;;;;5094106;28;20506;-76
2021/07/25 02:15:58;;;;;;;7.85;5.40;;;14.40;77.10;;;;;;5094397;28;20071;-76
2021/07/25 02:18:27;;;;;;;11.55;5.85;;;14.40;77.10;;;;;;5094159;28;20063;-76
2021/07/25 02:20:55;;;;;;;10.95;6.05;;;14.30;77.00;;;;;;5092942;28;20044;-76
2021/07/25 02:23:23;;;;;;;10.13;5.97;;;14.40;77.10;;;;;;5093829;28;20044;-76
2021/07/25 02:25:50;;;;;;;9.48;5.80;;;14.40;77.00;;;;;;5094134;28;20044;-77
2021/07/25 02:28:18;;;;;;;7.50;5.93;;;14.40;77.00;;;;;;5093963;28;20482;-76
2021/07/25 02:30:48;;;;;;;11.27;5.80;;;14.40;77.00;;;;;;5092227;28;20055;-76
2021/07/25 02:33:16;;;;;;;10.90;6.10;;;14.40;76.90;;;;;;5094088;28;20040;-76
2021/07/25 02:35:43;;;;;;;9.13;5.45;;;14.40;76.90;;;;;;5092620;28;20052;-76
2021/07/25 02:38:11;;;;;;;8.80;5.32;;;14.40;76.80;;;;;;5093691;28;20157;-76
2021/07/25 02:40:38;;;;;;;7.53;5.70;;;14.40;76.70;;;;;;5089955;28;20056;-76
2021/07/25 02:43:06;;;;;;;11.45;5.68;;;14.50;76.60;;;;;;5091862;28;20051;-75
2021/07/25 02:45:34;;;;;;;10.93;5.90;;;14.50;76.60;;;;;;5092892;28;20048;-76
2021/07/25 02:48:02;;;;;;;11.43;5.78;;;14.50;76.60;;;;;;5073797;28;20048;-76
2021/07/25 02:50:30;;;;;;;9.27;5.90;;;14.40;76.60;;;;;;5091602;28;20390;-76
2021/07/25 02:52:57;;;;;;;10.32;6.03;;;14.40;76.70;;;;;;5091932;28;20035;-76
2021/07/25 02:55:25;;;;;;;12.38;6.15;;;14.40;76.70;;;;;;5059006;28;20079;-76
2021/07/25 02:57:52;;;;;;;9.25;5.88;;;14.40;76.80;;;;;;5091635;28;20040;-76
2021/07/25 03:00:21;;;;;;;10.88;6.13;;;14.40;76.80;;;;;;5091485;28;20541;-76
2021/07/25 03:02:49;;;;;;;8.90;6.65;;;14.30;77.00;;;;;;5093236;28;20391;-76
2021/07/25 03:05:17;;;;;;;13.43;6.60;;;14.30;77.20;;;;;;5088861;28;20043;-76
2021/07/25 03:07:44;;;;;;;11.32;6.55;;;14.30;77.20;;;;;;5088774;28;20494;-76
2021/07/25 03:10:12;;;;;;;13.57;6.20;;;14.30;77.20;;;;;;5089695;28;20052;-76
2021/07/25 03:12:40;;;;;;;9.80;6.57;;;14.30;77.30;;;;;;5086833;28;20055;-76
2021/07/25 03:15:08;;;;;;;12.65;6.40;;;14.30;77.40;;;;;;5089523;28;20047;-76
2021/07/25 03:17:36;;;;;;;9.82;6.43;;;14.30;77.40;;;;;;5092403;28;20066;-76
2021/07/25 03:20:04;;;;;;;8.48;6.00;;;14.30;77.50;;;;;;5092262;28;20352;-76
2021/07/25 03:22:35;;;;;;;10.95;5.60;;;14.40;77.50;;;;;;5091643;28;20036;-75
2021/07/25 03:25:05;;;;;;;11.27;6.57;;;14.30;77.50;;;;;;5088827;28;20059;-76
2021/07/25 03:27:34;;;;;;;8.45;6.03;;;14.30;77.50;;;;;;5074262;28;20449;-76
2021/07/25 03:30:04;;;;;;;12.85;5.95;;;14.30;77.50;;;;;;5088916;28;20047;-76
2021/07/25 03:32:35;;;;;;;14.25;5.90;;;14.30;77.60;;;;;;5092370;28;20044;-76
2021/07/25 03:35:06;;;;;;;13.88;6.03;;;14.30;77.70;;;;;;5091566;28;20036;-76
2021/07/25 03:37:34;;;;;;;12.00;6.10;;;14.30;77.80;;;;;;5092772;28;20053;-76
2021/07/25 03:40:02;;;;;;;10.05;6.78;;;14.30;78.00;;;;;;5092464;28;20056;-75
2021/07/25 03:42:30;;;;;;;11.93;6.57;;;14.30;78.10;;;;;;5090923;28;20047;-76
2021/07/25 03:44:57;;;;;;;13.77;7.03;;;14.20;78.30;;;;;;5090825;28;20047;-76
2021/07/25 03:47:25;;;;;;;11.02;6.93;;;14.20;78.50;;;;;;5092592;28;20040;-76
2021/07/25 03:49:53;;;;;;;10.65;7.43;;;14.20;78.70;;;;;;5092421;28;20054;-76
2021/07/25 03:52:20;;;;;;;11.20;7.57;;;14.10;78.80;;;;;;5092529;28;20044;-76
2021/07/25 03:54:48;;;;;;;12.60;7.28;;;14.00;79.00;;;;;;5092417;28;20044;-76
2021/07/25 03:57:16;;;;;;;8.98;6.82;;;14.00;79.20;;;;;;5092300;28;20044;-76
2021/07/25 03:59:44;;;;;;;13.65;7.13;;;14.00;79.30;;;;;;5091572;28;20056;-76
2021/07/25 04:02:12;;;;;;;10.82;6.75;;;13.90;79.50;;;;;;5092208;28;20036;-76
2021/07/25 04:04:40;;;;;;;9.07;6.88;;;13.90;79.60;;;;;;5091982;28;20044;-76
2021/07/25 04:07:07;;;;;;;7.65;6.72;;;13.80;79.80;;;;;;5091140;28;20040;-76
2021/07/25 04:09:37;;;;;;;12.35;7.38;;;13.80;79.90;;;;;;5091480;28;20047;-76
2021/07/25 04:12:05;;;;;;;12.98;7.35;;;13.80;80.00;;;;;;5089828;28;20047;-76
2021/07/25 04:14:33;;;;;;;17.67;8.70;;;13.80;80.10;;;;;;5074306;28;20075;-76
2021/07/25 04:17:01;;;;;;;17.55;8.52;;;13.80;80.20;;;;;;5092047;28;20491;-76
2021/07/25 04:19:29;;;;;;;14.00;8.00;;;13.80;80.40;;;;;;5090825;28;20052;-76
2021/07/25 04:21:58;;;;;;;12.05;7.90;;;13.80;80.50;;;;;;5090876;28;20510;-76
2021/07/25 04:24:26;;;;;;;14.27;7.90;;;13.80;80.50;;;;;;5090693;28;20052;-76
2021/07/25 04:26:54;;;;;;;11.07;6.60;;;13.80;80.60;;;;;;5091983;28;20391;-76
2021/07/25 04:29:22;;;;;;;7.43;6.03;;;13.80;80.50;;;;;;5091974;28;20048;-76
2021/07/25 04:31:50;;;;;;;9.00;6.82;;;13.80;80.50;;;;;;5092030;28;20040;-76
2021/07/25 04:34:20;;;;;;;9.02;6.75;;;13.80;80.40;;;;;;5092102;28;20051;-75
2021/07/25 04:36:48;;;;;;;12.43;7.35;;;13.80;80.40;;;;;;5090839;28;20059;-76
2021/07/25 04:39:16;;;;;;;9.00;6.80;;;13.80;80.30;;;;;;5092285;28;20047;-76
2021/07/25 04:41:50;;;;;;;11.68;7.18;;;13.80;80.30;;;;;;5090369;28;20052;-76
2021/07/25 04:44:39;;;;;;;9.10;6.68;;;13.80;80.40;;;;;;5091777;28;20051;-76
2021/07/25 04:47:15;;;;;;;14.23;7.70;;;13.80;80.40;;;;;;5091847;28;20047;-76
2021/07/25 04:50:03;;;;;;;13.10;6.35;;;13.90;80.30;;;;;;5089393;28;20142;-76
2021/07/25 04:52:37;;;;;;;13.20;6.97;;;13.90;80.30;;;;;;5091642;28;20055;-76
2021/07/25 04:55:12;;;;;;;9.95;6.93;;;14.00;80.20;;;;;;5091109;28;20055;-76
2021/07/25 04:57:42;;;;;;;21.13;7.63;;;13.90;80.20;;;;;;5095418;28;20048;-76
2021/07/25 05:00:14;;;;;;;9.90;6.65;;;14.00;80.10;;;;;;5094344;28;20044;-75
2021/07/25 05:02:44;;;;;;;13.95;7.18;;;14.00;80.10;;;;;;5095883;28;20126;-76
2021/07/25 05:05:12;;;;;;;8.43;6.68;;;14.10;80.00;;;;;;5094435;28;20067;-76
2021/07/25 05:07:41;;;;;;;13.25;7.28;;;14.20;80.00;;;;;;5095509;28;20040;-76
2021/07/25 05:10:10;;;;;;;13.88;7.85;;;14.20;80.00;;;;;;5095328;28;20059;-76
2021/07/25 05:12:59;;;;;;;13.02;7.47;;;14.20;79.90;;;;;;5095179;28;20052;-76
2021/07/25 05:15:32;;;;;;;11.32;7.40;;;14.30;79.90;;;;;;5094812;28;20517;-76
2021/07/25 05:18:08;;;;;;;10.98;6.82;;;14.30;79.70;;;;;;5093430;28;20044;-76
2021/07/25 05:20:43;;;;;;;11.93;7.43;;;14.30;79.60;;;;;;5076672;28;20059;-76
2021/07/25 05:23:10;;;;;;;11.80;6.55;;;14.40;79.50;;;;;;5093233;28;20052;-76
2021/07/25 05:25:46;;;;;;;11.10;6.40;;;14.50;79.30;;;;;;5091897;28;20071;-76
2021/07/25 05:28:15;;;;;;;7.95;5.88;;;14.60;79.10;;;;;;5093348;28;20442;-76
2021/07/25 05:30:44;;;;;;;7.82;5.78;;;14.70;78.70;;;;;;5092264;28;20055;-76
2021/07/25 05:33:11;;;;;;;11.13;6.45;;;14.80;78.40;;;;;;5092267;28;20501;-75
2021/07/25 05:35:39;;;;;;;10.05;6.72;;;14.80;78.20;;;;;;5091980;28;20048;-76
2021/07/25 05:38:07;;;;;;;11.82;7.15;;;14.90;78.20;;;;;;5093214;28;20044;-76
2021/07/25 05:40:34;;;;;;;10.77;6.03;;;14.90;78.30;;;;;;5093286;28;20048;-76
2021/07/25 05:43:02;;;;;;;9.00;5.93;;;15.10;78.20;;;;;;5093580;28;20040;-76
2021/07/25 05:45:30;;;;;;;10.10;5.97;;;15.10;77.90;;;;;;5094903;28;20403;-75
2021/07/25 05:47:59;;;;;;;8.85;6.28;;;15.10;77.60;;;;;;5093549;28;20066;-76
2021/07/25 05:50:26;;;;;;;6.68;5.80;;;15.20;77.40;;;;;;5094697;28;20052;-76
2021/07/25 05:52:56;;;;;;;10.15;5.50;;;15.20;77.20;;;;;;5094786;28;20044;-76
2021/07/25 05:55:26;;;;;;;8.10;5.60;;;15.30;77.00;;;;;;5094606;28;20051;-76
2021/07/25 05:57:54;;;;;;;9.15;5.85;;;15.30;76.70;;;;;;5094640;28;20048;-76
2021/07/25 06:00:22;;;;;;;9.95;5.45;;;15.40;76.40;;;;;;5094464;28;20505;-76
2021/07/25 06:02:58;;;;;;;6.43;5.70;;;15.50;76.20;;;;;;5094428;28;20047;-76
2021/07/25 06:05:32;;;;;;;7.97;5.47;;;15.60;75.90;;;;;;5094744;28;20044;-75
2021/07/25 06:08:03;;;;;;;9.07;5.88;;;15.60;75.60;;;;;;5094125;28;20398;-76
2021/07/25 06:10:33;;;;;;;8.20;5.75;;;15.60;75.40;;;;;;5094574;28;20524;-76
2021/07/25 06:13:03;;;;;;;7.32;5.68;;;15.70;75.20;;;;;;5094037;28;20044;-76
2021/07/25 06:15:33;;;;;;;12.35;5.55;;;15.70;75.00;;;;;;5092840;28;20055;-76
2021/07/25 06:18:02;;;;;;;8.43;5.35;;;15.80;74.90;;;;;;5094026;28;20044;-76
2021/07/25 06:20:30;;;;;;;10.13;5.40;;;15.80;74.80;;;;;;5094116;28;20040;-76
2021/07/25 06:22:59;;;;;;;9.63;5.47;;;15.80;74.70;;;;;;5093772;28;20276;-75
2021/07/25 06:25:30;;;;;;;9.82;5.90;;;15.80;74.70;;;;;;5092491;28;20498;-75
2021/07/25 06:28:00;;;;;;;7.25;5.15;;;15.70;74.80;;;;;;5075828;28;20044;-76
2021/07/25 06:30:30;;;;;;;9.85;5.57;;;15.70;74.90;;;;;;5092386;28;20051;-76
2021/07/25 06:33:06;;;;;;;10.80;5.45;;;15.70;74.90;;;;;;5075550;28;20052;-75
2021/07/25 06:35:37;;;;;;;8.38;5.75;;;15.70;74.90;;;;;;5092388;28;20060;-76
2021/07/25 06:38:07;;;;;;;10.10;5.70;;;15.80;74.90;;;;;;5093722;28;20048;-76
2021/07/25 06:40:36;;;;;;;8.82;5.70;;;15.80;74.90;;;;;;5091473;28;20051;-76
2021/07/25 06:43:05;;;;;;;8.55;5.22;;;15.80;74.90;;;;;;5093696;28;20055;-76
2021/07/25 06:45:33;;;;;;;7.18;5.53;;;15.90;74.90;;;;;;5093661;28;20399;-76
2021/07/25 06:48:02;;;;;;;8.50;5.80;;;15.90;74.80;;;;;;5093704;28;20047;-76
2021/07/25 06:50:31;;;;;;;10.45;5.15;;;16.00;74.70;;;;;;5093654;28;20060;-76
2021/07/25 06:52:59;;;;;;;12.00;5.78;;;16.10;74.60;;;;;;5093528;28;20040;-76
2021/07/25 06:55:29;;;;;;;10.85;5.72;;;16.20;74.50;;;;;;5092439;28;20051;-76
2021/07/25 06:57:57;;;;;;;9.23;5.82;;;16.20;74.40;;;;;;5093441;28;20055;-76
2021/07/25 07:00:26;;;;;;;11.68;6.05;;;16.30;74.30;;;;;;5093847;28;20051;-76
2021/07/25 07:02:55;;;;;;;9.40;5.57;;;16.30;74.20;;;;;;5108408;28;20052;-76
2021/07/25 07:05:25;;;;;;;12.50;5.70;;;16.30;74.10;;;;;;5091692;28;20052;-76
2021/07/25 07:07:55;;;;;;;10.75;5.75;;;16.40;74.00;;;;;;5093162;28;20052;-76
2021/07/25 07:10:26;;;;;;;9.30;5.47;;;16.50;73.80;;;;;;5092117;28;20047;-76
2021/07/25 07:12:55;;;;;;;10.18;6.30;;;16.60;73.60;;;;;;5092002;28;20407;-76
2021/07/25 07:15:25;;;;;;;15.13;6.30;;;16.70;73.30;;;;;;5091608;28;20044;-76
2021/07/25 07:17:55;;;;;;;7.10;5.60;;;16.80;73.10;;;;;;5092296;28;20047;-76
2021/07/25 07:20:23;;;;;;;10.65;5.53;;;16.90;72.80;;;;;;5091320;28;20048;-75
2021/07/25 07:22:56;;;;;;;14.15;6.57;;;17.10;72.80;;;;;;5086560;28;20057;-76
2021/07/25 07:25:29;;;;;;;11.90;6.55;;;17.30;72.60;;;;;;5072626;28;20064;-76
2021/07/25 07:27:57;;;;;;;10.68;5.72;;;17.40;72.10;;;;;;5071288;28;20067;-75
2021/07/25 07:30:25;;;;;;;13.88;6.40;;;17.60;71.80;;;;;;5071215;28;20045;-76
2021/07/25 07:32:53;;;;;;;8.32;6.00;;;17.70;71.40;;;;;;5072169;28;20052;-76
2021/07/25 07:35:24;;;;;;;8.73;6.68;;;17.80;71.00;;;;;;5072196;28;20055;-76
2021/07/25 07:37:52;;;;;;;9.05;6.40;;;17.90;70.70;;;;;;5071291;28;20487;-76
2021/07/25 07:40:23;;;;;;;9.93;6.22;;;17.90;70.50;;;;;;5071055;28;20506;-76
2021/07/25 07:42:53;;;;;;;8.43;5.85;;;17.90;70.30;;;;;;5089030;28;20498;-75
2021/07/25 07:45:21;;;;;;;13.85;6.32;;;17.90;70.20;;;;;;5091215;28;20044;-76
2021/07/25 07:47:50;;;;;;;6.65;5.93;;;17.90;70.20;;;;;;5090364;28;20040;-75
2021/07/25 07:50:21;;;;;;;9.07;6.03;;;18.00;70.20;;;;;;5091718;28;20388;-76
2021/07/25 07:52:49;;;;;;;10.38;6.30;;;18.00;70.30;;;;;;5071313;28;20040;-76
2021/07/25 07:55:20;;;;;;;11.48;7.07;;;18.00;70.30;;;;;;5088350;28;20071;-77
2021/07/25 07:57:48;;;;;;;10.35;6.60;;;18.10;70.10;;;;;;5092002;28;20422;-76
2021/07/25 08:00:18;;;;;;;14.65;6.82;;;18.30;70.10;;;;;;5090907;28;20052;-76
2021/07/25 08:02:51;;;;;;;11.35;6.70;;;18.30;69.80;;;;;;5089954;28;20036;-76
2021/07/25 08:05:23;;;;;;;11.02;6.30;;;18.40;69.40;;;;;;5073983;28;20048;-76
2021/07/25 08:07:51;;;;;;;10.48;6.90;;;18.50;69.10;;;;;;5091492;28;20047;-76
2021/07/25 08:10:19;;;;;;;9.27;6.10;;;18.60;68.90;;;;;;5072133;28;20056;-76
2021/07/25 08:12:47;;;;;;;12.07;7.05;;;18.70;68.50;;;;;;5090997;28;20516;-76
2021/07/25 08:15:15;;;;;;;9.38;6.00;;;18.70;68.30;;;;;;5091366;28;20087;-76
2021/07/25 08:17:43;;;;;;;9.00;6.10;;;18.60;68.10;;;;;;5073874;28;20035;-76
2021/07/25 08:20:14;;;;;;;10.68;5.97;;;18.60;68.30;;;;;;5091745;28;20051;-76
2021/07/25 08:22:42;;;;;;;11.45;6.47;;;18.60;68.30;;;;;;5091243;28;20068;-76
2021/07/25 08:25:10;;;;;;;5.35;3.70;;;18.70;68.20;;;;;;5090236;28;20052;-76
2021/07/25 08:27:38;;;;;;;10.32;4.40;;;18.70;67.80;;;;;;5090785;28;20048;-76
2021/07/25 08:30:06;;;;;;;9.13;4.13;;;18.80;67.50;;;;;;5076032;28;20498;-77
2021/07/25 08:32:44;;;;;;;7.95;4.78;;;18.80;67.50;;;;;;5094597;28;20051;-76
2021/07/25 08:35:12;;;;;;;8.27;4.60;;;18.80;67.20;;;;;;5095636;28;20040;-76
2021/07/25 08:37:40;;;;;;;5.00;3.67;;;18.90;66.70;;;;;;5094734;28;20048;-76
2021/07/25 08:40:12;;;;;;;8.13;4.07;;;19.10;66.40;;;;;;5094959;28;20062;-76
2021/07/25 08:42:49;;;;;;;8.00;4.43;;;19.10;66.10;;;;;;5074464;28;20059;-76
2021/07/25 08:45:17;;;;;;;7.28;4.30;;;19.20;66.00;;;;;;5073613;28;20055;-77
2021/07/25 08:47:57;;;;;;;7.88;4.80;;;19.20;65.30;;;;;;5095260;28;20043;-76
2021/07/25 08:50:27;;;;;;;9.13;4.40;;;19.30;65.20;;;;;;5093000;28;20032;-76
2021/07/25 08:52:55;;;;;;;4.85;3.40;;;19.30;65.10;;;;;;5095639;28;20052;-77
2021/07/25 08:55:23;;;;;;;4.63;2.90;;;19.30;65.00;;;;;;5093792;28;20078;-76
2021/07/25 08:57:51;;;;;;;8.00;3.10;;;19.40;64.80;;;;;;5094304;28;20048;-77
2021/07/25 09:00:21;;;;;;;7.40;3.42;;;19.50;64.30;;;;;;5093681;28;20088;-76
2021/07/25 09:02:50;;;;;;;5.72;3.05;;;19.60;64.00;;;;;;5095062;28;20059;-77
2021/07/25 09:05:19;;;;;;;6.63;4.57;;;19.80;63.70;;;;;;5093797;28;20040;-77
2021/07/25 09:07:50;;;;;;;8.15;5.15;;;19.80;62.90;;;;;;5094844;28;20047;-76
2021/07/25 09:10:20;;;;;;;11.13;6.70;;;19.90;62.50;;;;;;5095327;28;20054;-77
2021/07/25 09:12:50;;;;;;;8.70;7.00;;;20.00;62.20;;;;;;5095032;28;20048;-77
2021/07/25 09:15:29;;;;;;;8.80;6.70;;;20.20;62.00;;;;;;5094838;28;20048;-76
2021/07/25 09:17:58;;;;;;;13.10;7.95;;;20.40;61.60;;;;;;5093674;28;20044;-76
2021/07/25 09:20:28;;;;;;;12.95;8.20;;;20.60;60.70;;;;;;5093109;28;20048;-76
2021/07/25 09:23:01;;;;;;;10.15;7.30;;;20.60;60.20;;;;;;5093453;28;20137;-76
2021/07/25 09:25:39;;;;;;;11.45;7.60;;;20.60;60.30;;;;;;5077014;28;20055;-76
2021/07/25 09:28:06;;;;;;;12.75;7.22;;;20.70;60.20;;;;;;5094886;28;20048;-76
2021/07/25 09:30:34;;;;;;;9.48;7.13;;;20.70;60.40;;;;;;5073507;28;20049;-76
2021/07/25 09:33:28;;;;;;;10.52;6.60;;;20.80;60.30;;;;;;5089982;28;20047;-76
2021/07/25 09:36:03;;;;;;;10.02;7.10;;;20.90;59.80;;;;;;5094308;28;20118;-76
2021/07/25 09:38:31;;;;;;;15.40;7.07;;;20.90;59.80;;;;;;5094752;28;20044;-76
2021/07/25 09:41:00;;;;;;;14.85;6.90;;;21.00;59.60;;;;;;5091407;28;20047;-76
2021/07/25 09:43:29;;;;;;;7.82;6.43;;;21.00;59.40;;;;;;5094299;28;20044;-76
2021/07/25 09:45:58;;;;;;;10.98;7.05;;;21.00;59.30;;;;;;5094451;28;20044;-76
2021/07/25 09:48:34;;;;;;;14.05;7.45;;;21.00;59.20;;;;;;5094839;28;20055;-76
2021/07/25 09:51:17;;;;;;;12.88;7.18;;;21.20;59.10;;;;;;5094317;28;20032;-76
2021/07/25 09:53:53;;;;;;;11.20;7.93;;;21.10;59.00;;;;;;5076063;28;20048;-76
2021/07/25 09:56:23;;;;;;;15.10;8.30;;;21.10;58.80;;;;;;5076355;28;20044;-76
2021/07/25 09:58:54;;;;;;;11.68;7.78;;;21.00;58.90;;;;;;5065110;28;20056;-76
2021/07/25 10:01:38;;;;;;;12.18;8.35;;;20.90;59.00;;;;;;5090999;28;20055;-76
2021/07/25 10:04:15;;;;;;;12.35;8.63;;;20.80;59.50;;;;;;5093590;28;20063;-76
2021/07/25 10:06:44;;;;;;;10.45;8.48;;;20.60;59.90;;;;;;5073152;28;20490;-76
2021/07/25 10:09:14;;;;;;;10.32;7.93;;;20.40;60.20;;;;;;5091806;28;20411;-76
2021/07/25 10:12:03;;;;;;;11.57;8.80;;;20.40;60.40;;;;;;5093854;28;20517;-75
2021/07/25 10:14:33;;;;;;;10.88;8.63;;;20.30;60.50;;;;;;5090226;28;20056;-75
2021/07/25 10:17:03;;;;;;;12.27;8.40;;;20.30;60.60;;;;;;5094017;28;20056;-76
2021/07/25 10:19:41;;;;;;;12.68;9.70;;;20.20;61.00;;;;;;5092995;28;20044;-76
2021/07/25 10:22:11;;;;;;;12.57;9.10;;;20.20;61.40;;;;;;5093938;28;20040;-75
2021/07/25 10:24:43;;;;;;;14.82;8.77;;;20.30;61.10;;;;;;5093979;28;20406;-77
2021/07/25 10:27:16;;;;;;;10.43;8.75;;;20.30;60.70;;;;;;5093999;28;20521;-77
2021/07/25 10:29:45;;;;;;;10.93;8.43;;;20.40;60.60;;;;;;5093803;28;20044;-77
2021/07/25 10:32:17;;;;;;;10.80;8.82;;;20.40;60.20;;;;;;5093863;28;20494;-75
2021/07/25 10:34:49;;;;;;;10.85;8.93;;;20.40;60.00;;;;;;5094497;28;20043;-76
2021/07/25 10:37:17;;;;;;;11.60;8.98;;;20.40;59.90;;;;;;5092554;28;20048;-75
2021/07/25 10:39:50;;;;;;;12.00;8.77;;;20.40;59.70;;;;;;5091381;28;20036;-75
2021/07/25 10:42:23;;;;;;;12.13;9.50;;;20.30;59.80;;;;;;5093733;28;20406;-75
2021/07/25 10:44:51;;;;;;;11.32;10.13;;;20.30;60.10;;;;;;5093602;28;20058;-75
2021/07/25 10:47:32;;;;;;;23.95;10.52;;;20.20;60.40;;;;;;5093519;28;20048;-75
2021/07/25 10:50:04;;;;;;;12.48;8.95;;;20.20;60.60;;;;;;5093808;28;20040;-77
2021/07/25 10:52:54;;;;;;;16.20;10.73;;;20.20;60.80;;;;;;5092669;28;20048;-75
2021/07/25 10:55:34;;;;;;;12.70;9.50;;;20.20;61.00;;;;;;5093391;28;20058;-77
2021/07/25 10:58:03;;;;;;;14.13;9.77;;;20.20;61.10;;;;;;5092550;28;20048;-77
2021/07/25 11:00:46;;;;;;;11.85;9.10;;;20.30;61.20;;;;;;5091454;28;20040;-77
2021/07/25 11:03:30;;;;;;;17.70;12.32;;;20.30;61.20;;;;;;5091852;28;20418;-75
2021/07/25 11:06:07;;;;;;;23.25;17.17;;;20.50;60.60;;;;;;5092406;28;20036;-75
2021/07/25 11:08:43;;;;;;;14.82;11.60;;;20.70;60.20;;;;;;5082321;28;20048;-76
2021/07/25 11:11:29;;;;;;;16.52;9.13;;;20.80;60.00;;;;;;5092090;28;20036;-77
2021/07/25 11:13:57;;;;;;;13.52;9.82;;;21.00;59.80;;;;;;5054825;28;20059;-77
2021/07/25 11:16:29;;;;;;;16.27;10.50;;;21.20;59.50;;;;;;5086648;28;20052;-76
2021/07/25 11:18:58;;;;;;;10.63;8.65;;;21.40;59.00;;;;;;5091656;28;20048;-77
2021/07/25 11:21:45;;;;;;;14.45;9.27;;;21.80;58.20;;;;;;5092489;28;20048;-77
2021/07/25 11:24:28;;;;;;;13.20;8.55;;;22.10;56.80;;;;;;5089914;28;20056;-78
2021/07/25 11:27:04;;;;;;;;;;;22.30;55.80;;;;;;5092919;28;20475;-75
2021/07/25 11:29:31;;;;;;;8.57;7.30;;;22.40;55.40;;;;;;5088554;28;19920;-76
2021/07/25 11:32:03;;;;;;;11.73;8.05;;;22.60;55.50;;;;;;5089153;28;20036;-78
2021/07/25 11:34:33;;;;;;;11.02;7.53;;;22.80;55.10;;;;;;5091143;28;20044;-76
2021/07/25 11:37:08;;;;;;;7.75;6.47;;;23.00;54.70;;;;;;5088342;28;20056;-76
2021/07/25 11:39:57;;;;;;;11.00;7.00;;;23.30;53.30;;;;;;5088707;28;20055;-77
2021/07/25 11:42:26;;;;;;;11.40;6.35;;;23.20;52.90;;;;;;5074684;28;20047;-77
2021/07/25 11:45:01;;;;;;;11.10;6.60;;;23.30;53.00;;;;;;5092813;28;20048;-77
2021/07/25 11:47:29;;;;;;;10.95;6.72;;;23.20;52.40;;;;;;5092538;28;20044;-77
2021/07/25 11:49:57;;;;;;;9.32;6.53;;;23.20;52.50;;;;;;5091074;28;20044;-78
2021/07/25 11:52:27;;;;;;;15.60;7.22;;;23.20;52.40;;;;;;5091681;28;20182;-78
2021/07/25 11:54:55;;;;;;;10.23;6.78;;;23.30;52.30;;;;;;5090929;28;20048;-78
2021/07/25 11:57:24;;;;;;;9.18;6.38;;;23.40;52.40;;;;;;5089881;28;20430;-77
2021/07/25 11:59:59;;;;;;;8.43;6.72;;;23.70;52.10;;;;;;5090681;28;20052;-77
2021/07/25 12:02:38;;;;;;;12.55;7.18;;;24.20;51.70;;;;;;5091707;28;20044;-78
2021/07/25 12:05:09;;;;;;;9.10;6.45;;;24.30;51.10;;;;;;5089935;28;20130;-78
2021/07/25 12:07:52;;;;;;;11.27;6.45;;;24.30;50.80;;;;;;5075401;28;20055;-77
2021/07/25 12:10:31;;;;;;;12.32;6.45;;;24.10;50.80;;;;;;5090705;28;20079;-78
2021/07/25 12:13:05;;;;;;;9.00;7.43;;;23.80;50.20;;;;;;5090007;28;20043;-78
2021/07/25 12:15:38;;;;;;;8.82;7.32;;;23.70;49.90;;;;;;5088213;28;20055;-77
2021/07/25 12:18:09;;;;;;;11.57;6.88;;;23.40;50.20;;;;;;5091775;28;20040;-78
2021/07/25 12:20:38;;;;;;;7.50;6.10;;;23.50;50.10;;;;;;5090300;28;20047;-78
2021/07/25 12:23:08;;;;;;;8.60;6.18;;;23.50;49.60;;;;;;5091357;28;20497;-77
2021/07/25 12:25:38;;;;;;;9.25;6.93;;;23.50;48.70;;;;;;5053139;28;22380;-78
2021/07/25 12:28:13;;;;;;;9.60;6.80;;;23.60;49.30;;;;;;5055714;28;20043;-78
2021/07/25 12:30:43;;;;;;;8.68;7.00;;;23.80;49.30;;;;;;5067643;28;20040;-77
2021/07/25 12:33:13;;;;;;;12.10;6.85;;;24.00;49.00;;;;;;5072339;28;20104;-79
2021/07/25 12:35:41;;;;;;;8.95;6.63;;;24.20;48.10;;;;;;5087381;28;20503;-78
2021/07/25 12:38:11;;;;;;;9.90;7.25;;;24.40;48.00;;;;;;5072168;28;20059;-78
2021/07/25 12:40:52;;;;;;;9.63;6.57;;;24.60;47.40;;;;;;5071523;28;20049;-78
2021/07/25 12:43:22;;;;;;;9.80;6.82;;;24.60;47.00;;;;;;5073258;28;20052;-77
2021/07/25 12:45:56;;;;;;;10.50;7.20;;;24.30;47.50;;;;;;5069881;28;20043;-78
2021/07/25 12:48:26;;;;;;;8.00;6.57;;;24.20;47.80;;;;;;5059171;28;20056;-77
2021/07/25 12:53:40;;;;;;;8.65;6.38;;;24.00;47.80;;;;;;5055759;28;20045;-77
2021/07/25 12:56:12;;;;;;;6.97;5.88;;;24.50;47.10;;;;;;5051587;28;20049;-77
2021/07/25 12:58:43;;;;;;;7.70;5.47;;;25.10;45.70;;;;;;5050001;28;20045;-77
2021/07/25 13:03:59;;;;;;;8.98;5.78;;;26.90;43.00;;;;;;5048190;28;20056;-78